sensor_id;sensor_type;location;lat;lon;timestamp;P1;durP1;ratioP1;P2;durP2;ratioP2
28926;SDS011;16038;47.692;9.400;2022-11-23T00:00:21;8.82;;;2.13;;
28926;SDS011;16038;47.692;9.400;2022-11-23T00:02:46;3.85;;;1.90;;
28926;SDS011;16038;47.692;9.400;2022-11-23T00:05:11;5.60;;;2.72;;
28926;SDS011;16038;47.692;9.400;2022-11-23T00:07:37;4.75;;;2.30;;
28926;SDS011;16038;47.692;9.400;2022-11-23T00:10:02;5.75;;;2.20;;
28926;SDS011;16038;47.692;9.400;2022-11-23T00:12:28;8.80;;;2.40;;
28926;SDS011;16038;47.692;9.400;2022-11-23T00:14:53;5.75;;;1.98;;
28926;SDS011;16038;47.692;9.400;2022-11-23T00:17:19;4.57;;;2.13;;
28926;SDS011;16038;47.692;9.400;2022-11-23T00:19:44;7.93;;;2.72;;
28926;SDS011;16038;47.692;9.400;2022-11-23T00:22:09;4.07;;;2.20;;
28926;SDS011;16038;47.692;9.400;2022-11-23T00:24:35;8.50;;;2.92;;
28926;SDS011;16038;47.692;9.400;2022-11-23T00:27:00;5.32;;;2.80;;
28926;SDS011;16038;47.692;9.400;2022-11-23T00:29:26;7.65;;;3.22;;
28926;SDS011;16038;47.692;9.400;2022-11-23T00:31:51;3.63;;;2.60;;
28926;SDS011;16038;47.692;9.400;2022-11-23T00:34:16;8.05;;;2.47;;
28926;SDS011;16038;47.692;9.400;2022-11-23T00:36:42;4.55;;;2.63;;
28926;SDS011;16038;47.692;9.400;2022-11-23T00:39:07;5.30;;;2.40;;
28926;SDS011;16038;47.692;9.400;2022-11-23T00:41:32;7.32;;;2.28;;
28926;SDS011;16038;47.692;9.400;2022-11-23T00:43:58;7.15;;;2.25;;
28926;SDS011;16038;47.692;9.400;2022-11-23T00:46:24;5.68;;;2.40;;
28926;SDS011;16038;47.692;9.400;2022-11-23T00:48:51;5.32;;;2.03;;
28926;SDS011;16038;47.692;9.400;2022-11-23T00:51:22;6.53;;;1.77;;
28926;SDS011;16038;47.692;9.400;2022-11-23T00:53:49;6.00;;;2.17;;
28926;SDS011;16038;47.692;9.400;2022-11-23T00:56:15;4.95;;;1.80;;
28926;SDS011;16038;47.692;9.400;2022-11-23T00:58:42;5.13;;;2.03;;
28926;SDS011;16038;47.692;9.400;2022-11-23T01:01:12;5.88;;;1.90;;
28926;SDS011;16038;47.692;9.400;2022-11-23T01:03:40;9.30;;;2.15;;
28926;SDS011;16038;47.692;9.400;2022-11-23T01:06:11;4.10;;;2.00;;
28926;SDS011;16038;47.692;9.400;2022-11-23T01:08:41;4.25;;;1.75;;
28926;SDS011;16038;47.692;9.400;2022-11-23T01:11:10;6.88;;;2.00;;
28926;SDS011;16038;47.692;9.400;2022-11-23T01:13:37;6.90;;;2.20;;
28926;SDS011;16038;47.692;9.400;2022-11-23T01:16:06;5.40;;;1.90;;
28926;SDS011;16038;47.692;9.400;2022-11-23T01:18:39;4.13;;;1.88;;
28926;SDS011;16038;47.692;9.400;2022-11-23T01:21:05;3.90;;;1.73;;
28926;SDS011;16038;47.692;9.400;2022-11-23T01:23:31;6.10;;;1.80;;
28926;SDS011;16038;47.692;9.400;2022-11-23T01:25:56;3.65;;;1.95;;
28926;SDS011;16038;47.692;9.400;2022-11-23T01:28:22;5.03;;;1.77;;
28926;SDS011;16038;47.692;9.400;2022-11-23T01:30:48;4.50;;;2.00;;
28926;SDS011;16038;47.692;9.400;2022-11-23T01:33:13;7.68;;;2.25;;
28926;SDS011;16038;47.692;9.400;2022-11-23T01:35:39;4.78;;;1.90;;
28926;SDS011;16038;47.692;9.400;2022-11-23T01:38:04;3.30;;;1.55;;
28926;SDS011;16038;47.692;9.400;2022-11-23T01:40:30;6.53;;;1.77;;
28926;SDS011;16038;47.692;9.400;2022-11-23T01:43:03;4.47;;;2.00;;
28926;SDS011;16038;47.692;9.400;2022-11-23T01:45:41;8.85;;;2.17;;
28926;SDS011;16038;47.692;9.400;2022-11-23T01:50:50;9.00;;;2.08;;
28926;SDS011;16038;47.692;9.400;2022-11-23T01:53:17;12.05;;;3.17;;
28926;SDS011;16038;47.692;9.400;2022-11-23T01:55:44;4.60;;;1.88;;
28926;SDS011;16038;47.692;9.400;2022-11-23T01:58:13;5.63;;;2.20;;
28926;SDS011;16038;47.692;9.400;2022-11-23T02:00:42;4.43;;;1.77;;
28926;SDS011;16038;47.692;9.400;2022-11-23T02:03:09;3.67;;;1.60;;
28926;SDS011;16038;47.692;9.400;2022-11-23T02:05:36;7.75;;;1.90;;
28926;SDS011;16038;47.692;9.400;2022-11-23T02:08:06;6.95;;;2.00;;
28926;SDS011;16038;47.692;9.400;2022-11-23T02:10:32;2.70;;;1.80;;
28926;SDS011;16038;47.692;9.400;2022-11-23T02:13:00;3.85;;;2.10;;
28926;SDS011;16038;47.692;9.400;2022-11-23T02:15:28;7.72;;;2.25;;
28926;SDS011;16038;47.692;9.400;2022-11-23T02:17:54;4.13;;;1.80;;
28926;SDS011;16038;47.692;9.400;2022-11-23T02:20:22;4.55;;;1.80;;
28926;SDS011;16038;47.692;9.400;2022-11-23T02:27:56;7.25;;;2.03;;
28926;SDS011;16038;47.692;9.400;2022-11-23T02:30:22;5.07;;;2.03;;
28926;SDS011;16038;47.692;9.400;2022-11-23T02:32:48;4.82;;;1.90;;
28926;SDS011;16038;47.692;9.400;2022-11-23T02:35:13;6.45;;;1.92;;
28926;SDS011;16038;47.692;9.400;2022-11-23T02:37:39;9.75;;;1.90;;
28926;SDS011;16038;47.692;9.400;2022-11-23T02:40:08;5.60;;;2.35;;
28926;SDS011;16038;47.692;9.400;2022-11-23T02:42:44;3.85;;;2.22;;
28926;SDS011;16038;47.692;9.400;2022-11-23T02:45:23;9.00;;;4.18;;
28926;SDS011;16038;47.692;9.400;2022-11-23T02:47:55;15.20;;;6.55;;
28926;SDS011;16038;47.692;9.400;2022-11-23T02:50:21;14.68;;;5.95;;
28926;SDS011;16038;47.692;9.400;2022-11-23T02:52:46;10.20;;;4.38;;
28926;SDS011;16038;47.692;9.400;2022-11-23T02:55:12;7.00;;;3.60;;
28926;SDS011;16038;47.692;9.400;2022-11-23T02:57:37;6.65;;;2.88;;
28926;SDS011;16038;47.692;9.400;2022-11-23T03:00:03;7.13;;;2.60;;
28926;SDS011;16038;47.692;9.400;2022-11-23T03:02:29;5.93;;;2.40;;
28926;SDS011;16038;47.692;9.400;2022-11-23T03:04:54;4.25;;;2.70;;
28926;SDS011;16038;47.692;9.400;2022-11-23T03:07:20;6.55;;;2.63;;
28926;SDS011;16038;47.692;9.400;2022-11-23T03:09:45;5.88;;;2.60;;
28926;SDS011;16038;47.692;9.400;2022-11-23T03:12:11;7.63;;;2.40;;
28926;SDS011;16038;47.692;9.400;2022-11-23T03:14:36;6.15;;;2.58;;
28926;SDS011;16038;47.692;9.400;2022-11-23T03:17:02;7.25;;;2.40;;
28926;SDS011;16038;47.692;9.400;2022-11-23T03:19:29;4.57;;;2.50;;
28926;SDS011;16038;47.692;9.400;2022-11-23T03:21:54;7.10;;;2.40;;
28926;SDS011;16038;47.692;9.400;2022-11-23T03:24:21;5.07;;;2.00;;
28926;SDS011;16038;47.692;9.400;2022-11-23T03:26:46;4.38;;;2.33;;
28926;SDS011;16038;47.692;9.400;2022-11-23T03:29:12;4.38;;;2.05;;
28926;SDS011;16038;47.692;9.400;2022-11-23T03:31:37;6.55;;;2.25;;
28926;SDS011;16038;47.692;9.400;2022-11-23T03:34:03;6.05;;;2.35;;
28926;SDS011;16038;47.692;9.400;2022-11-23T03:36:28;5.32;;;2.40;;
28926;SDS011;16038;47.692;9.400;2022-11-23T03:38:53;6.38;;;2.33;;
28926;SDS011;16038;47.692;9.400;2022-11-23T03:41:19;8.45;;;3.53;;
28926;SDS011;16038;47.692;9.400;2022-11-23T03:43:44;4.13;;;2.40;;
28926;SDS011;16038;47.692;9.400;2022-11-23T03:46:10;3.58;;;2.22;;
28926;SDS011;16038;47.692;9.400;2022-11-23T03:48:35;6.85;;;2.30;;
28926;SDS011;16038;47.692;9.400;2022-11-23T03:51:00;3.85;;;2.30;;
28926;SDS011;16038;47.692;9.400;2022-11-23T03:53:26;5.68;;;2.35;;
28926;SDS011;16038;47.692;9.400;2022-11-23T03:55:51;6.07;;;2.22;;
28926;SDS011;16038;47.692;9.400;2022-11-23T03:58:19;7.68;;;2.28;;
28926;SDS011;16038;47.692;9.400;2022-11-23T04:00:44;3.45;;;2.13;;
28926;SDS011;16038;47.692;9.400;2022-11-23T04:03:10;10.13;;;2.22;;
28926;SDS011;16038;47.692;9.400;2022-11-23T04:05:35;6.45;;;2.58;;
28926;SDS011;16038;47.692;9.400;2022-11-23T04:08:00;5.43;;;2.70;;
28926;SDS011;16038;47.692;9.400;2022-11-23T04:10:26;8.82;;;2.60;;
28926;SDS011;16038;47.692;9.400;2022-11-23T04:12:52;2.97;;;2.08;;
28926;SDS011;16038;47.692;9.400;2022-11-23T04:15:17;4.63;;;2.15;;
28926;SDS011;16038;47.692;9.400;2022-11-23T04:17:44;12.48;;;2.88;;
28926;SDS011;16038;47.692;9.400;2022-11-23T04:20:10;5.82;;;2.50;;
28926;SDS011;16038;47.692;9.400;2022-11-23T04:22:36;4.47;;;2.30;;
28926;SDS011;16038;47.692;9.400;2022-11-23T04:25:02;6.22;;;2.67;;
28926;SDS011;16038;47.692;9.400;2022-11-23T04:27:27;6.43;;;2.55;;
28926;SDS011;16038;47.692;9.400;2022-11-23T04:29:53;8.50;;;2.55;;
28926;SDS011;16038;47.692;9.400;2022-11-23T04:32:19;7.80;;;2.75;;
28926;SDS011;16038;47.692;9.400;2022-11-23T04:34:44;8.60;;;3.55;;
28926;SDS011;16038;47.692;9.400;2022-11-23T04:37:10;7.32;;;2.90;;
28926;SDS011;16038;47.692;9.400;2022-11-23T04:39:35;8.45;;;2.92;;
28926;SDS011;16038;47.692;9.400;2022-11-23T04:42:01;5.28;;;2.92;;
28926;SDS011;16038;47.692;9.400;2022-11-23T04:44:26;7.43;;;2.90;;
28926;SDS011;16038;47.692;9.400;2022-11-23T04:46:52;7.50;;;3.10;;
28926;SDS011;16038;47.692;9.400;2022-11-23T04:49:17;7.93;;;2.83;;
28926;SDS011;16038;47.692;9.400;2022-11-23T04:51:42;7.45;;;3.35;;
28926;SDS011;16038;47.692;9.400;2022-11-23T04:54:08;7.30;;;3.13;;
28926;SDS011;16038;47.692;9.400;2022-11-23T04:56:33;7.22;;;2.85;;
28926;SDS011;16038;47.692;9.400;2022-11-23T04:58:59;7.22;;;3.65;;
28926;SDS011;16038;47.692;9.400;2022-11-23T05:01:24;10.52;;;3.47;;
28926;SDS011;16038;47.692;9.400;2022-11-23T05:03:50;13.70;;;3.42;;
28926;SDS011;16038;47.692;9.400;2022-11-23T05:06:15;5.35;;;3.20;;
28926;SDS011;16038;47.692;9.400;2022-11-23T05:08:40;5.05;;;3.15;;
28926;SDS011;16038;47.692;9.400;2022-11-23T05:11:06;10.05;;;2.80;;
28926;SDS011;16038;47.692;9.400;2022-11-23T05:13:32;5.72;;;3.10;;
28926;SDS011;16038;47.692;9.400;2022-11-23T05:15:57;9.02;;;3.05;;
28926;SDS011;16038;47.692;9.400;2022-11-23T05:18:22;5.43;;;3.10;;
28926;SDS011;16038;47.692;9.400;2022-11-23T05:20:48;6.20;;;3.20;;
28926;SDS011;16038;47.692;9.400;2022-11-23T05:23:13;5.72;;;3.42;;
28926;SDS011;16038;47.692;9.400;2022-11-23T05:25:39;8.75;;;3.35;;
28926;SDS011;16038;47.692;9.400;2022-11-23T05:28:04;4.32;;;2.90;;
28926;SDS011;16038;47.692;9.400;2022-11-23T05:30:30;7.40;;;3.67;;
28926;SDS011;16038;47.692;9.400;2022-11-23T05:32:59;10.00;;;3.00;;
28926;SDS011;16038;47.692;9.400;2022-11-23T05:37:51;6.68;;;3.47;;
28926;SDS011;16038;47.692;9.400;2022-11-23T05:40:16;7.32;;;2.90;;
28926;SDS011;16038;47.692;9.400;2022-11-23T05:42:42;5.45;;;2.88;;
28926;SDS011;16038;47.692;9.400;2022-11-23T05:45:07;4.15;;;2.80;;
28926;SDS011;16038;47.692;9.400;2022-11-23T05:47:33;6.53;;;3.13;;
28926;SDS011;16038;47.692;9.400;2022-11-23T05:49:58;8.82;;;3.83;;
28926;SDS011;16038;47.692;9.400;2022-11-23T05:52:24;7.03;;;3.90;;
28926;SDS011;16038;47.692;9.400;2022-11-23T05:54:50;6.47;;;3.50;;
28926;SDS011;16038;47.692;9.400;2022-11-23T05:57:15;8.77;;;4.72;;
28926;SDS011;16038;47.692;9.400;2022-11-23T05:59:41;8.52;;;4.32;;
28926;SDS011;16038;47.692;9.400;2022-11-23T06:02:07;9.57;;;4.55;;
28926;SDS011;16038;47.692;9.400;2022-11-23T06:04:33;13.45;;;4.53;;
28926;SDS011;16038;47.692;9.400;2022-11-23T06:06:58;8.88;;;4.38;;
28926;SDS011;16038;47.692;9.400;2022-11-23T06:09:25;9.18;;;3.20;;
28926;SDS011;16038;47.692;9.400;2022-11-23T06:11:51;8.20;;;3.47;;
28926;SDS011;16038;47.692;9.400;2022-11-23T06:14:17;9.40;;;3.28;;
28926;SDS011;16038;47.692;9.400;2022-11-23T06:16:42;10.57;;;3.25;;
28926;SDS011;16038;47.692;9.400;2022-11-23T06:19:08;4.78;;;3.22;;
28926;SDS011;16038;47.692;9.400;2022-11-23T06:21:33;8.65;;;4.00;;
28926;SDS011;16038;47.692;9.400;2022-11-23T06:23:59;8.48;;;4.25;;
28926;SDS011;16038;47.692;9.400;2022-11-23T06:26:24;7.55;;;4.30;;
28926;SDS011;16038;47.692;9.400;2022-11-23T06:28:49;12.90;;;4.63;;
28926;SDS011;16038;47.692;9.400;2022-11-23T06:31:15;7.10;;;4.88;;
28926;SDS011;16038;47.692;9.400;2022-11-23T06:33:41;9.80;;;4.70;;
28926;SDS011;16038;47.692;9.400;2022-11-23T06:36:06;6.55;;;3.72;;
28926;SDS011;16038;47.692;9.400;2022-11-23T06:38:34;6.70;;;3.42;;
28926;SDS011;16038;47.692;9.400;2022-11-23T06:41:00;12.23;;;4.28;;
28926;SDS011;16038;47.692;9.400;2022-11-23T06:43:26;5.18;;;3.08;;
28926;SDS011;16038;47.692;9.400;2022-11-23T06:45:55;6.18;;;3.30;;
28926;SDS011;16038;47.692;9.400;2022-11-23T06:48:21;9.25;;;3.83;;
28926;SDS011;16038;47.692;9.400;2022-11-23T06:50:47;5.95;;;3.78;;
28926;SDS011;16038;47.692;9.400;2022-11-23T06:53:13;9.68;;;3.35;;
28926;SDS011;16038;47.692;9.400;2022-11-23T06:55:39;9.13;;;4.10;;
28926;SDS011;16038;47.692;9.400;2022-11-23T06:58:04;11.32;;;4.97;;
28926;SDS011;16038;47.692;9.400;2022-11-23T07:00:31;11.05;;;5.07;;
28926;SDS011;16038;47.692;9.400;2022-11-23T07:02:57;9.18;;;5.32;;
28926;SDS011;16038;47.692;9.400;2022-11-23T07:05:24;7.45;;;3.75;;
28926;SDS011;16038;47.692;9.400;2022-11-23T07:07:51;5.20;;;3.03;;
28926;SDS011;16038;47.692;9.400;2022-11-23T07:10:16;7.00;;;3.85;;
28926;SDS011;16038;47.692;9.400;2022-11-23T07:12:42;8.07;;;3.53;;
28926;SDS011;16038;47.692;9.400;2022-11-23T07:15:08;6.88;;;3.40;;
28926;SDS011;16038;47.692;9.400;2022-11-23T07:17:38;9.48;;;4.13;;
28926;SDS011;16038;47.692;9.400;2022-11-23T07:20:09;12.38;;;4.55;;
28926;SDS011;16038;47.692;9.400;2022-11-23T07:22:35;14.18;;;5.72;;
28926;SDS011;16038;47.692;9.400;2022-11-23T07:25:01;14.27;;;5.30;;
28926;SDS011;16038;47.692;9.400;2022-11-23T07:27:27;10.25;;;4.78;;
28926;SDS011;16038;47.692;9.400;2022-11-23T07:29:53;15.38;;;4.75;;
28926;SDS011;16038;47.692;9.400;2022-11-23T07:32:18;10.50;;;4.43;;
28926;SDS011;16038;47.692;9.400;2022-11-23T07:34:44;7.80;;;3.67;;
28926;SDS011;16038;47.692;9.400;2022-11-23T07:37:09;8.93;;;3.42;;
28926;SDS011;16038;47.692;9.400;2022-11-23T07:39:34;17.25;;;4.15;;
28926;SDS011;16038;47.692;9.400;2022-11-23T07:42:00;6.50;;;3.20;;
28926;SDS011;16038;47.692;9.400;2022-11-23T07:44:25;9.88;;;3.50;;
28926;SDS011;16038;47.692;9.400;2022-11-23T07:46:53;15.57;;;4.25;;
28926;SDS011;16038;47.692;9.400;2022-11-23T07:49:19;11.85;;;3.30;;
28926;SDS011;16038;47.692;9.400;2022-11-23T07:51:44;4.68;;;2.72;;
28926;SDS011;16038;47.692;9.400;2022-11-23T07:54:09;11.35;;;3.15;;
28926;SDS011;16038;47.692;9.400;2022-11-23T07:56:35;6.95;;;2.70;;
28926;SDS011;16038;47.692;9.400;2022-11-23T07:59:00;9.95;;;2.75;;
28926;SDS011;16038;47.692;9.400;2022-11-23T08:01:26;6.40;;;2.13;;
28926;SDS011;16038;47.692;9.400;2022-11-23T08:03:51;5.25;;;2.55;;
28926;SDS011;16038;47.692;9.400;2022-11-23T08:06:17;4.90;;;2.63;;
28926;SDS011;16038;47.692;9.400;2022-11-23T08:08:42;9.15;;;4.70;;
28926;SDS011;16038;47.692;9.400;2022-11-23T08:11:08;7.45;;;2.50;;
28926;SDS011;16038;47.692;9.400;2022-11-23T08:13:34;6.18;;;2.90;;
28926;SDS011;16038;47.692;9.400;2022-11-23T08:16:01;5.68;;;2.78;;
28926;SDS011;16038;47.692;9.400;2022-11-23T08:18:27;6.28;;;3.45;;
28926;SDS011;16038;47.692;9.400;2022-11-23T08:20:52;7.47;;;3.90;;
28926;SDS011;16038;47.692;9.400;2022-11-23T08:23:18;6.88;;;5.88;;
28926;SDS011;16038;47.692;9.400;2022-11-23T08:25:44;9.23;;;3.20;;
28926;SDS011;16038;47.692;9.400;2022-11-23T08:28:10;8.45;;;2.80;;
28926;SDS011;16038;47.692;9.400;2022-11-23T08:30:36;11.30;;;6.72;;
28926;SDS011;16038;47.692;9.400;2022-11-23T08:33:05;24.60;;;13.50;;
28926;SDS011;16038;47.692;9.400;2022-11-23T08:35:32;11.98;;;7.35;;
28926;SDS011;16038;47.692;9.400;2022-11-23T08:37:58;12.95;;;8.40;;
28926;SDS011;16038;47.692;9.400;2022-11-23T08:40:23;9.23;;;3.92;;
28926;SDS011;16038;47.692;9.400;2022-11-23T08:42:49;8.48;;;4.82;;
28926;SDS011;16038;47.692;9.400;2022-11-23T08:45:14;7.03;;;3.40;;
28926;SDS011;16038;47.692;9.400;2022-11-23T08:47:39;6.60;;;4.95;;
28926;SDS011;16038;47.692;9.400;2022-11-23T08:50:05;9.07;;;5.13;;
28926;SDS011;16038;47.692;9.400;2022-11-23T08:52:31;5.55;;;4.35;;
28926;SDS011;16038;47.692;9.400;2022-11-23T08:54:56;11.50;;;4.05;;
28926;SDS011;16038;47.692;9.400;2022-11-23T08:57:21;9.88;;;3.60;;
28926;SDS011;16038;47.692;9.400;2022-11-23T08:59:47;8.13;;;4.57;;
28926;SDS011;16038;47.692;9.400;2022-11-23T09:02:12;7.10;;;3.72;;
28926;SDS011;16038;47.692;9.400;2022-11-23T09:04:40;7.28;;;3.88;;
28926;SDS011;16038;47.692;9.400;2022-11-23T09:07:06;7.97;;;3.78;;
28926;SDS011;16038;47.692;9.400;2022-11-23T09:09:32;6.53;;;2.83;;
28926;SDS011;16038;47.692;9.400;2022-11-23T09:11:57;6.45;;;3.25;;
28926;SDS011;16038;47.692;9.400;2022-11-23T09:14:23;6.00;;;2.97;;
28926;SDS011;16038;47.692;9.400;2022-11-23T09:16:48;14.85;;;7.07;;
28926;SDS011;16038;47.692;9.400;2022-11-23T09:19:13;7.35;;;3.25;;
28926;SDS011;16038;47.692;9.400;2022-11-23T09:21:39;5.53;;;2.75;;
28926;SDS011;16038;47.692;9.400;2022-11-23T09:24:08;5.20;;;2.95;;
28926;SDS011;16038;47.692;9.400;2022-11-23T09:26:35;6.22;;;2.70;;
28926;SDS011;16038;47.692;9.400;2022-11-23T09:29:02;4.63;;;2.70;;
28926;SDS011;16038;47.692;9.400;2022-11-23T09:31:28;4.68;;;2.50;;
28926;SDS011;16038;47.692;9.400;2022-11-23T09:33:53;7.15;;;2.75;;
28926;SDS011;16038;47.692;9.400;2022-11-23T09:36:19;4.65;;;2.47;;
28926;SDS011;16038;47.692;9.400;2022-11-23T09:38:47;3.65;;;2.45;;
28926;SDS011;16038;47.692;9.400;2022-11-23T09:49:54;5.00;;;2.75;;
28926;SDS011;16038;47.692;9.400;2022-11-23T09:52:28;4.95;;;3.70;;
28926;SDS011;16038;47.692;9.400;2022-11-23T09:54:55;5.53;;;2.80;;
28926;SDS011;16038;47.692;9.400;2022-11-23T09:57:25;12.82;;;7.90;;
28926;SDS011;16038;47.692;9.400;2022-11-23T09:59:58;13.85;;;7.78;;
28926;SDS011;16038;47.692;9.400;2022-11-23T10:02:29;7.00;;;2.80;;
28926;SDS011;16038;47.692;9.400;2022-11-23T10:04:58;27.60;;;17.15;;
28926;SDS011;16038;47.692;9.400;2022-11-23T10:07:38;24.40;;;16.55;;
28926;SDS011;16038;47.692;9.400;2022-11-23T10:10:20;7.60;;;4.30;;
28926;SDS011;16038;47.692;9.400;2022-11-23T10:12:54;4.85;;;2.50;;
28926;SDS011;16038;47.692;9.400;2022-11-23T10:15:27;14.23;;;8.93;;
28926;SDS011;16038;47.692;9.400;2022-11-23T10:20:54;11.40;;;4.22;;
28926;SDS011;16038;47.692;9.400;2022-11-23T10:26:26;4.33;;;1.70;;
28926;SDS011;16038;47.692;9.400;2022-11-23T10:28:56;5.10;;;1.63;;
28926;SDS011;16038;47.692;9.400;2022-11-23T10:31:31;3.88;;;1.90;;
28926;SDS011;16038;47.692;9.400;2022-11-23T10:34:12;4.47;;;1.98;;
28926;SDS011;16038;47.692;9.400;2022-11-23T10:36:40;4.82;;;2.00;;
28926;SDS011;16038;47.692;9.400;2022-11-23T10:39:24;4.70;;;2.50;;
28926;SDS011;16038;47.692;9.400;2022-11-23T10:42:00;5.65;;;2.58;;
28926;SDS011;16038;47.692;9.400;2022-11-23T10:44:38;5.82;;;3.40;;
28926;SDS011;16038;47.692;9.400;2022-11-23T10:47:07;5.60;;;2.22;;
28926;SDS011;16038;47.692;9.400;2022-11-23T10:49:33;6.07;;;2.30;;
28926;SDS011;16038;47.692;9.400;2022-11-23T10:52:01;6.38;;;2.13;;
28926;SDS011;16038;47.692;9.400;2022-11-23T10:54:31;6.80;;;2.20;;
28926;SDS011;16038;47.692;9.400;2022-11-23T10:57:00;3.15;;;1.67;;
28926;SDS011;16038;47.692;9.400;2022-11-23T10:59:32;5.00;;;1.92;;
28926;SDS011;16038;47.692;9.400;2022-11-23T11:04:26;4.63;;;1.80;;
28926;SDS011;16038;47.692;9.400;2022-11-23T11:06:51;3.47;;;1.83;;
28926;SDS011;16038;47.692;9.400;2022-11-23T11:09:34;3.53;;;1.70;;
28926;SDS011;16038;47.692;9.400;2022-11-23T11:12:00;5.47;;;1.70;;
28926;SDS011;16038;47.692;9.400;2022-11-23T11:14:26;15.80;;;2.47;;
28926;SDS011;16038;47.692;9.400;2022-11-23T11:16:55;5.70;;;1.70;;
28926;SDS011;16038;47.692;9.400;2022-11-23T11:21:58;10.45;;;5.20;;
28926;SDS011;16038;47.692;9.400;2022-11-23T11:24:30;6.18;;;1.75;;
28926;SDS011;16038;47.692;9.400;2022-11-23T11:27:01;5.75;;;1.85;;
28926;SDS011;16038;47.692;9.400;2022-11-23T11:29:31;6.57;;;3.13;;
28926;SDS011;16038;47.692;9.400;2022-11-23T11:32:03;7.97;;;2.00;;
28926;SDS011;16038;47.692;9.400;2022-11-23T11:37:31;4.70;;;2.17;;
28926;SDS011;16038;47.692;9.400;2022-11-23T11:42:33;8.43;;;2.17;;
28926;SDS011;16038;47.692;9.400;2022-11-23T11:45:04;4.57;;;1.70;;
28926;SDS011;16038;47.692;9.400;2022-11-23T11:47:40;4.00;;;1.70;;
28926;SDS011;16038;47.692;9.400;2022-11-23T11:50:16;4.25;;;1.50;;
28926;SDS011;16038;47.692;9.400;2022-11-23T11:52:45;4.55;;;1.85;;
28926;SDS011;16038;47.692;9.400;2022-11-23T11:55:20;4.10;;;1.70;;
28926;SDS011;16038;47.692;9.400;2022-11-23T11:57:54;2.03;;;1.00;;
28926;SDS011;16038;47.692;9.400;2022-11-23T12:00:25;3.83;;;1.50;;
28926;SDS011;16038;47.692;9.400;2022-11-23T12:10:59;5.95;;;2.20;;
28926;SDS011;16038;47.692;9.400;2022-11-23T12:13:36;3.53;;;1.10;;
28926;SDS011;16038;47.692;9.400;2022-11-23T12:24:32;9.43;;;3.13;;
28926;SDS011;16038;47.692;9.400;2022-11-23T12:43:27;5.50;;;1.30;;
28926;SDS011;16038;47.692;9.400;2022-11-23T12:56:47;4.63;;;1.08;;
28926;SDS011;16038;47.692;9.400;2022-11-23T12:59:25;3.72;;;1.23;;
28926;SDS011;16038;47.692;9.400;2022-11-23T13:02:09;5.20;;;1.52;;
28926;SDS011;16038;47.692;9.400;2022-11-23T13:23:08;16.38;;;2.00;;
28926;SDS011;16038;47.692;9.400;2022-11-23T13:25:34;11.55;;;1.45;;
28926;SDS011;16038;47.692;9.400;2022-11-23T13:28:03;8.07;;;1.38;;
28926;SDS011;16038;47.692;9.400;2022-11-23T13:31:16;3.97;;;1.08;;
28926;SDS011;16038;47.692;9.400;2022-11-23T13:33:47;2.53;;;0.80;;
28926;SDS011;16038;47.692;9.400;2022-11-23T13:38:57;3.10;;;1.17;;
28926;SDS011;16038;47.692;9.400;2022-11-23T13:43:58;3.60;;;1.48;;
28926;SDS011;16038;47.692;9.400;2022-11-23T13:47:04;3.90;;;1.10;;
28926;SDS011;16038;47.692;9.400;2022-11-23T13:49:41;14.10;;;2.30;;
28926;SDS011;16038;47.692;9.400;2022-11-23T13:57:33;6.43;;;1.90;;
28926;SDS011;16038;47.692;9.400;2022-11-23T14:06:09;4.18;;;1.55;;
28926;SDS011;16038;47.692;9.400;2022-11-23T14:08:38;22.35;;;2.67;;
28926;SDS011;16038;47.692;9.400;2022-11-23T14:11:11;16.10;;;3.88;;
28926;SDS011;16038;47.692;9.400;2022-11-23T14:13:44;7.38;;;2.15;;
28926;SDS011;16038;47.692;9.400;2022-11-23T14:16:17;8.63;;;2.42;;
28926;SDS011;16038;47.692;9.400;2022-11-23T14:25:15;17.20;;;2.20;;
28926;SDS011;16038;47.692;9.400;2022-11-23T14:30:57;20.85;;;3.47;;
28926;SDS011;16038;47.692;9.400;2022-11-23T14:42:02;11.75;;;2.53;;
28926;SDS011;16038;47.692;9.400;2022-11-23T14:44:34;6.80;;;2.30;;
28926;SDS011;16038;47.692;9.400;2022-11-23T14:47:04;8.90;;;1.67;;
28926;SDS011;16038;47.692;9.400;2022-11-23T14:49:31;23.45;;;3.17;;
28926;SDS011;16038;47.692;9.400;2022-11-23T14:51:56;11.65;;;2.30;;
28926;SDS011;16038;47.692;9.400;2022-11-23T14:54:22;9.23;;;3.85;;
28926;SDS011;16038;47.692;9.400;2022-11-23T14:56:49;5.03;;;1.98;;
28926;SDS011;16038;47.692;9.400;2022-11-23T14:59:24;5.55;;;1.75;;
28926;SDS011;16038;47.692;9.400;2022-11-23T15:01:59;10.73;;;1.50;;
28926;SDS011;16038;47.692;9.400;2022-11-23T15:04:27;5.07;;;1.50;;
28926;SDS011;16038;47.692;9.400;2022-11-23T15:07:18;3.35;;;1.08;;
28926;SDS011;16038;47.692;9.400;2022-11-23T15:09:52;7.20;;;1.30;;
28926;SDS011;16038;47.692;9.400;2022-11-23T15:12:42;3.97;;;1.70;;
28926;SDS011;16038;47.692;9.400;2022-11-23T15:15:19;3.50;;;1.42;;
28926;SDS011;16038;47.692;9.400;2022-11-23T15:17:50;5.13;;;1.00;;
28926;SDS011;16038;47.692;9.400;2022-11-23T15:20:17;3.47;;;1.30;;
28926;SDS011;16038;47.692;9.400;2022-11-23T15:22:43;3.92;;;0.95;;
28926;SDS011;16038;47.692;9.400;2022-11-23T15:25:12;2.38;;;1.20;;
28926;SDS011;16038;47.692;9.400;2022-11-23T15:27:40;3.33;;;1.10;;
28926;SDS011;16038;47.692;9.400;2022-11-23T15:30:16;2.72;;;1.17;;
28926;SDS011;16038;47.692;9.400;2022-11-23T15:32:52;4.65;;;1.40;;
28926;SDS011;16038;47.692;9.400;2022-11-23T15:35:32;2.47;;;1.20;;
28926;SDS011;16038;47.692;9.400;2022-11-23T15:38:00;2.97;;;1.10;;
28926;SDS011;16038;47.692;9.400;2022-11-23T15:40:31;3.63;;;1.38;;
28926;SDS011;16038;47.692;9.400;2022-11-23T15:42:59;4.22;;;1.30;;
28926;SDS011;16038;47.692;9.400;2022-11-23T15:45:34;4.20;;;1.15;;
28926;SDS011;16038;47.692;9.400;2022-11-23T15:48:26;6.88;;;1.83;;
28926;SDS011;16038;47.692;9.400;2022-11-23T15:50:54;1.20;;;0.93;;
28926;SDS011;16038;47.692;9.400;2022-11-23T15:53:25;8.20;;;1.65;;
28926;SDS011;16038;47.692;9.400;2022-11-23T15:55:53;2.80;;;1.40;;
28926;SDS011;16038;47.692;9.400;2022-11-23T15:58:22;5.82;;;1.50;;
28926;SDS011;16038;47.692;9.400;2022-11-23T16:01:33;4.28;;;0.93;;
28926;SDS011;16038;47.692;9.400;2022-11-23T16:03:46;2.38;;;1.30;;
28926;SDS011;16038;47.692;9.400;2022-11-23T16:06:17;2.93;;;1.60;;
28926;SDS011;16038;47.692;9.400;2022-11-23T16:08:46;7.65;;;2.08;;
28926;SDS011;16038;47.692;9.400;2022-11-23T16:16:40;2.30;;;1.13;;
28926;SDS011;16038;47.692;9.400;2022-11-23T16:19:20;3.67;;;1.55;;
28926;SDS011;16038;47.692;9.400;2022-11-23T16:21:48;4.03;;;1.40;;
28926;SDS011;16038;47.692;9.400;2022-11-23T16:24:18;4.13;;;1.50;;
28926;SDS011;16038;47.692;9.400;2022-11-23T16:26:45;3.47;;;1.27;;
28926;SDS011;16038;47.692;9.400;2022-11-23T16:29:24;3.90;;;1.33;;
28926;SDS011;16038;47.692;9.400;2022-11-23T16:31:53;6.07;;;2.70;;
28926;SDS011;16038;47.692;9.400;2022-11-23T16:34:20;6.93;;;2.15;;
28926;SDS011;16038;47.692;9.400;2022-11-23T16:36:46;15.23;;;9.52;;
28926;SDS011;16038;47.692;9.400;2022-11-23T16:39:12;12.60;;;7.90;;
28926;SDS011;16038;47.692;9.400;2022-11-23T16:41:37;5.50;;;1.80;;
28926;SDS011;16038;47.692;9.400;2022-11-23T16:44:03;6.32;;;3.28;;
28926;SDS011;16038;47.692;9.400;2022-11-23T16:46:32;7.10;;;1.70;;
28926;SDS011;16038;47.692;9.400;2022-11-23T16:48:58;4.03;;;2.03;;
28926;SDS011;16038;47.692;9.400;2022-11-23T16:51:24;5.32;;;2.55;;
28926;SDS011;16038;47.692;9.400;2022-11-23T16:53:49;8.25;;;3.67;;
28926;SDS011;16038;47.692;9.400;2022-11-23T16:56:21;8.25;;;4.00;;
28926;SDS011;16038;47.692;9.400;2022-11-23T16:58:49;7.50;;;3.75;;
28926;SDS011;16038;47.692;9.400;2022-11-23T17:01:19;6.18;;;3.40;;
28926;SDS011;16038;47.692;9.400;2022-11-23T17:03:47;6.47;;;3.13;;
28926;SDS011;16038;47.692;9.400;2022-11-23T17:06:13;5.97;;;3.03;;
28926;SDS011;16038;47.692;9.400;2022-11-23T17:08:42;7.07;;;3.55;;